sensor_id;sensor_type;location;lat;lon;timestamp;pressure;altitude;pressure_sealevel;temperature;humidity
18988;BME280;5494;51.796;10.952;2023-10-31T00:01:21;96958.25;;;11.98;100.00
18988;BME280;5494;51.796;10.952;2023-10-31T00:03:49;96963.88;;;12.03;100.00
18988;BME280;5494;51.796;10.952;2023-10-31T00:06:17;96953.06;;;12.08;100.00
18988;BME280;5494;51.796;10.952;2023-10-31T00:08:45;96955.94;;;12.14;100.00
18988;BME280;5494;51.796;10.952;2023-10-31T00:11:15;96958.13;;;12.19;100.00
18988;BME280;5494;51.796;10.952;2023-10-31T00:13:43;96951.41;;;12.26;100.00
18988;BME280;5494;51.796;10.952;2023-10-31T00:16:11;96951.16;;;12.29;100.00
18988;BME280;5494;51.796;10.952;2023-10-31T00:18:39;96945.66;;;12.32;100.00
18988;BME280;5494;51.796;10.952;2023-10-31T00:21:07;96949.34;;;12.39;100.00
18988;BME280;5494;51.796;10.952;2023-10-31T00:23:43;96946.59;;;12.41;100.00
18988;BME280;5494;51.796;10.952;2023-10-31T00:26:12;96938.09;;;12.39;100.00
18988;BME280;5494;51.796;10.952;2023-10-31T00:28:47;96935.50;;;12.39;100.00
18988;BME280;5494;51.796;10.952;2023-10-31T00:31:16;96944.81;;;12.41;100.00
18988;BME280;5494;51.796;10.952;2023-10-31T00:33:44;96951.69;;;12.42;100.00
18988;BME280;5494;51.796;10.952;2023-10-31T00:36:13;96954.69;;;12.47;100.00
18988;BME280;5494;51.796;10.952;2023-10-31T00:38:41;96954.13;;;12.53;100.00
18988;BME280;5494;51.796;10.952;2023-10-31T00:41:09;96947.25;;;12.52;100.00
18988;BME280;5494;51.796;10.952;2023-10-31T00:43:37;96946.31;;;12.53;100.00
18988;BME280;5494;51.796;10.952;2023-10-31T00:46:07;96951.81;;;12.50;100.00
18988;BME280;5494;51.796;10.952;2023-10-31T00:48:35;96954.13;;;12.53;100.00
18988;BME280;5494;51.796;10.952;2023-10-31T00:51:04;96954.13;;;12.53;100.00
18988;BME280;5494;51.796;10.952;2023-10-31T00:53:33;96957.69;;;12.52;100.00
18988;BME280;5494;51.796;10.952;2023-10-31T00:56:02;96946.59;;;12.50;100.00
18988;BME280;5494;51.796;10.952;2023-10-31T00:58:30;96942.59;;;12.56;100.00
18988;BME280;5494;51.796;10.952;2023-10-31T01:00:59;96951.66;;;12.61;100.00
18988;BME280;5494;51.796;10.952;2023-10-31T01:03:29;96947.25;;;12.62;100.00
18988;BME280;5494;51.796;10.952;2023-10-31T01:05:57;96944.91;;;12.59;100.00
18988;BME280;5494;51.796;10.952;2023-10-31T01:08:26;96950.56;;;12.64;100.00
18988;BME280;5494;51.796;10.952;2023-10-31T01:10:54;96946.31;;;12.63;100.00
18988;BME280;5494;51.796;10.952;2023-10-31T01:13:22;96939.44;;;12.62;100.00
18988;BME280;5494;51.796;10.952;2023-10-31T01:15:50;96941.50;;;12.58;100.00
18988;BME280;5494;51.796;10.952;2023-10-31T01:18:18;96939.72;;;12.59;100.00
18988;BME280;5494;51.796;10.952;2023-10-31T01:20:48;96948.34;;;12.59;100.00
18988;BME280;5494;51.796;10.952;2023-10-31T01:23:16;96944.91;;;12.69;100.00
18988;BME280;5494;51.796;10.952;2023-10-31T01:25:44;96939.69;;;12.69;100.00
18988;BME280;5494;51.796;10.952;2023-10-31T01:28:12;96938.75;;;12.70;100.00
18988;BME280;5494;51.796;10.952;2023-10-31T01:30:40;96930.22;;;12.68;100.00
18988;BME280;5494;51.796;10.952;2023-10-31T01:33:08;96937.66;;;12.62;100.00
18988;BME280;5494;51.796;10.952;2023-10-31T01:35:37;96926.84;;;12.57;100.00
18988;BME280;5494;51.796;10.952;2023-10-31T01:38:07;96924.50;;;12.64;100.00
18988;BME280;5494;51.796;10.952;2023-10-31T01:40:36;96930.09;;;12.59;100.00
18988;BME280;5494;51.796;10.952;2023-10-31T01:43:04;96923.66;;;12.63;100.00
18988;BME280;5494;51.796;10.952;2023-10-31T01:45:32;96919.41;;;12.62;100.00
18988;BME280;5494;51.796;10.952;2023-10-31T01:48:00;96915.03;;;12.63;100.00
18988;BME280;5494;51.796;10.952;2023-10-31T01:50:29;96914.31;;;12.71;100.00
18988;BME280;5494;51.796;10.952;2023-10-31T01:52:57;96907.72;;;12.67;100.00
18988;BME280;5494;51.796;10.952;2023-10-31T01:55:27;96903.59;;;12.74;100.00
18988;BME280;5494;51.796;10.952;2023-10-31T01:57:56;96900.56;;;12.78;100.00
18988;BME280;5494;51.796;10.952;2023-10-31T02:00:25;96905.41;;;12.63;100.00
18988;BME280;5494;51.796;10.952;2023-10-31T02:02:53;96895.81;;;12.64;100.00
18988;BME280;5494;51.796;10.952;2023-10-31T02:05:22;96891.00;;;12.59;100.00
18988;BME280;5494;51.796;10.952;2023-10-31T02:07:51;96896.22;;;12.59;100.00
18988;BME280;5494;51.796;10.952;2023-10-31T02:10:19;96895.66;;;12.66;100.00
18988;BME280;5494;51.796;10.952;2023-10-31T02:12:49;96892.53;;;12.62;100.00
18988;BME280;5494;51.796;10.952;2023-10-31T02:15:17;96890.47;;;12.56;100.00
18988;BME280;5494;51.796;10.952;2023-10-31T02:17:45;96892.25;;;12.55;100.00
18988;BME280;5494;51.796;10.952;2023-10-31T02:20:13;96881.03;;;12.55;100.00
18988;BME280;5494;51.796;10.952;2023-10-31T02:22:43;96881.84;;;12.55;100.00
18988;BME280;5494;51.796;10.952;2023-10-31T02:25:17;96874.66;;;12.67;100.00
18988;BME280;5494;51.796;10.952;2023-10-31T02:27:46;96866.06;;;12.57;100.00
18988;BME280;5494;51.796;10.952;2023-10-31T02:30:14;96863.97;;;12.60;100.00
18988;BME280;5494;51.796;10.952;2023-10-31T02:32:43;96857.94;;;12.70;100.00
18988;BME280;5494;51.796;10.952;2023-10-31T02:35:13;96863.25;;;12.78;100.00
18988;BME280;5494;51.796;10.952;2023-10-31T02:37:44;96861.50;;;12.69;100.00
18988;BME280;5494;51.796;10.952;2023-10-31T02:40:13;96859.03;;;12.67;100.00
18988;BME280;5494;51.796;10.952;2023-10-31T02:42:42;96863.13;;;12.70;100.00
18988;BME280;5494;51.796;10.952;2023-10-31T02:45:11;96863.72;;;12.63;100.00
18988;BME280;5494;51.796;10.952;2023-10-31T02:47:39;96867.53;;;12.59;100.00
18988;BME280;5494;51.796;10.952;2023-10-31T02:50:09;96865.25;;;12.56;100.00
18988;BME280;5494;51.796;10.952;2023-10-31T02:52:38;96866.06;;;12.57;100.00
18988;BME280;5494;51.796;10.952;2023-10-31T02:55:08;96857.03;;;12.51;100.00
18988;BME280;5494;51.796;10.952;2023-10-31T02:57:36;96856.28;;;12.69;100.00
18988;BME280;5494;51.796;10.952;2023-10-31T03:00:07;96841.09;;;12.54;100.00
18988;BME280;5494;51.796;10.952;2023-10-31T03:02:35;96853.16;;;12.55;100.00
18988;BME280;5494;51.796;10.952;2023-10-31T03:05:04;96841.34;;;12.61;100.00
18988;BME280;5494;51.796;10.952;2023-10-31T03:07:32;96849.75;;;12.55;100.00
18988;BME280;5494;51.796;10.952;2023-10-31T03:10:00;96849.88;;;12.53;100.00
18988;BME280;5494;51.796;10.952;2023-10-31T03:12:30;96856.06;;;12.52;100.00
18988;BME280;5494;51.796;10.952;2023-10-31T03:14:58;96858.66;;;12.52;100.00
18988;BME280;5494;51.796;10.952;2023-10-31T03:17:26;96852.63;;;12.52;100.00
18988;BME280;5494;51.796;10.952;2023-10-31T03:19:55;96853.16;;;12.55;100.00
18988;BME280;5494;51.796;10.952;2023-10-31T03:22:23;96861.13;;;12.54;100.00
18988;BME280;5494;51.796;10.952;2023-10-31T03:24:51;96871.41;;;12.55;100.00
18988;BME280;5494;51.796;10.952;2023-10-31T03:27:20;96872.63;;;12.61;100.00
18988;BME280;5494;51.796;10.952;2023-10-31T03:29:49;96873.44;;;12.61;100.00
18988;BME280;5494;51.796;10.952;2023-10-31T03:32:17;96856.72;;;12.64;100.00
18988;BME280;5494;51.796;10.952;2023-10-31T03:34:45;96853.66;;;12.69;100.00
18988;BME280;5494;51.796;10.952;2023-10-31T03:37:14;96847.50;;;12.70;100.00
18988;BME280;5494;51.796;10.952;2023-10-31T03:39:42;96858.88;;;12.69;100.00
18988;BME280;5494;51.796;10.952;2023-10-31T03:42:10;96865.75;;;12.70;100.00
18988;BME280;5494;51.796;10.952;2023-10-31T03:44:38;96860.53;;;12.70;100.00
18988;BME280;5494;51.796;10.952;2023-10-31T03:47:08;96865.16;;;12.76;100.00
18988;BME280;5494;51.796;10.952;2023-10-31T03:49:39;96854.75;;;12.76;100.00
18988;BME280;5494;51.796;10.952;2023-10-31T03:52:08;96857.34;;;12.76;100.00
18988;BME280;5494;51.796;10.952;2023-10-31T03:54:37;96854.16;;;12.82;100.00
18988;BME280;5494;51.796;10.952;2023-10-31T03:57:06;96858.81;;;12.88;100.00
18988;BME280;5494;51.796;10.952;2023-10-31T03:59:37;96860.75;;;12.86;100.00
18988;BME280;5494;51.796;10.952;2023-10-31T04:02:05;96857.72;;;12.81;100.00
18988;BME280;5494;51.796;10.952;2023-10-31T04:04:35;96876.81;;;12.81;100.00
18988;BME280;5494;51.796;10.952;2023-10-31T04:07:03;96876.13;;;12.79;100.00
18988;BME280;5494;51.796;10.952;2023-10-31T04:09:32;96880.53;;;12.79;100.00
18988;BME280;5494;51.796;10.952;2023-10-31T04:12:00;96885.44;;;12.82;100.00
18988;BME280;5494;51.796;10.952;2023-10-31T04:14:28;96886.72;;;12.78;100.00
18988;BME280;5494;51.796;10.952;2023-10-31T04:16:56;96880.00;;;12.75;100.00
18988;BME280;5494;51.796;10.952;2023-10-31T04:19:24;96886.81;;;12.86;100.00
18988;BME280;5494;51.796;10.952;2023-10-31T04:21:54;96890.06;;;12.97;100.00
18988;BME280;5494;51.796;10.952;2023-10-31T04:24:22;96886.91;;;12.94;100.00
18988;BME280;5494;51.796;10.952;2023-10-31T04:26:50;96882.69;;;12.93;100.00
18988;BME280;5494;51.796;10.952;2023-10-31T04:29:19;96878.59;;;13.08;100.00
18988;BME280;5494;51.796;10.952;2023-10-31T04:31:47;96884.00;;;13.07;100.00
18988;BME280;5494;51.796;10.952;2023-10-31T04:34:15;96886.75;;;13.05;100.00
18988;BME280;5494;51.796;10.952;2023-10-31T04:36:43;96882.09;;;12.99;100.00
18988;BME280;5494;51.796;10.952;2023-10-31T04:39:13;96882.25;;;12.97;100.00
18988;BME280;5494;51.796;10.952;2023-10-31T04:41:41;96896.38;;;12.95;100.00
18988;BME280;5494;51.796;10.952;2023-10-31T04:44:09;96886.81;;;12.86;100.00
18988;BME280;5494;51.796;10.952;2023-10-31T04:46:37;96882.72;;;12.74;100.00
18988;BME280;5494;51.796;10.952;2023-10-31T04:49:05;96875.38;;;12.59;100.00
18988;BME280;5494;51.796;10.952;2023-10-31T04:51:34;96873.19;;;12.55;100.00
18988;BME280;5494;51.796;10.952;2023-10-31T04:54:03;96876.38;;;12.49;100.00
18988;BME280;5494;51.796;10.952;2023-10-31T04:56:33;96893.84;;;12.29;100.00
18988;BME280;5494;51.796;10.952;2023-10-31T04:59:02;96884.38;;;12.18;100.00
18988;BME280;5494;51.796;10.952;2023-10-31T05:01:30;96883.41;;;12.19;100.00
18988;BME280;5494;51.796;10.952;2023-10-31T05:03:58;96868.09;;;12.16;100.00
18988;BME280;5494;51.796;10.952;2023-10-31T05:06:38;96893.31;;;12.06;100.00
18988;BME280;5494;51.796;10.952;2023-10-31T05:09:07;96907.31;;;11.96;100.00
18988;BME280;5494;51.796;10.952;2023-10-31T05:11:37;96901.38;;;11.84;100.00
18988;BME280;5494;51.796;10.952;2023-10-31T05:14:06;96917.00;;;11.84;100.00
18988;BME280;5494;51.796;10.952;2023-10-31T05:16:40;96913.75;;;11.82;100.00
18988;BME280;5494;51.796;10.952;2023-10-31T05:19:08;96905.66;;;11.75;100.00
18988;BME280;5494;51.796;10.952;2023-10-31T05:21:37;96921.50;;;11.72;100.00
18988;BME280;5494;51.796;10.952;2023-10-31T05:24:07;96908.06;;;11.67;100.00
18988;BME280;5494;51.796;10.952;2023-10-31T05:26:39;96934.38;;;11.55;100.00
18988;BME280;5494;51.796;10.952;2023-10-31T05:29:07;96923.13;;;11.54;100.00
18988;BME280;5494;51.796;10.952;2023-10-31T05:31:35;96936.50;;;11.40;100.00
18988;BME280;5494;51.796;10.952;2023-10-31T05:34:04;96934.56;;;11.32;100.00
18988;BME280;5494;51.796;10.952;2023-10-31T05:36:32;96947.28;;;11.26;100.00
18988;BME280;5494;51.796;10.952;2023-10-31T05:39:00;96944.97;;;11.32;100.00
18988;BME280;5494;51.796;10.952;2023-10-31T05:41:28;96927.84;;;11.30;100.00
18988;BME280;5494;51.796;10.952;2023-10-31T05:43:58;96921.41;;;11.24;100.00
18988;BME280;5494;51.796;10.952;2023-10-31T05:46:26;96960.28;;;11.26;100.00
18988;BME280;5494;51.796;10.952;2023-10-31T05:48:54;96973.72;;;11.31;100.00
18988;BME280;5494;51.796;10.952;2023-10-31T05:51:23;96984.78;;;11.23;100.00
18988;BME280;5494;51.796;10.952;2023-10-31T05:53:52;96972.59;;;11.24;100.00
18988;BME280;5494;51.796;10.952;2023-10-31T05:56:22;96981.47;;;11.21;100.00
18988;BME280;5494;51.796;10.952;2023-10-31T05:58:50;96968.16;;;11.15;100.00
18988;BME280;5494;51.796;10.952;2023-10-31T06:01:19;96978.88;;;11.21;100.00
18988;BME280;5494;51.796;10.952;2023-10-31T06:03:48;96989.63;;;11.07;100.00
18988;BME280;5494;51.796;10.952;2023-10-31T06:06:16;96979.63;;;11.02;100.00
18988;BME280;5494;51.796;10.952;2023-10-31T06:08:44;96989.59;;;10.97;100.00
18988;BME280;5494;51.796;10.952;2023-10-31T06:11:14;96994.38;;;11.02;100.00
18988;BME280;5494;51.796;10.952;2023-10-31T06:13:42;96993.03;;;11.07;100.00
18988;BME280;5494;51.796;10.952;2023-10-31T06:16:11;96988.44;;;11.11;100.00
18988;BME280;5494;51.796;10.952;2023-10-31T06:18:40;96981.28;;;11.03;100.00
18988;BME280;5494;51.796;10.952;2023-10-31T06:21:08;96993.44;;;11.03;100.00
18988;BME280;5494;51.796;10.952;2023-10-31T06:23:37;96986.59;;;11.02;100.00
18988;BME280;5494;51.796;10.952;2023-10-31T06:26:05;96991.16;;;11.10;100.00
18988;BME280;5494;51.796;10.952;2023-10-31T06:28:34;96988.16;;;11.14;100.00
18988;BME280;5494;51.796;10.952;2023-10-31T06:31:11;96984.28;;;11.09;100.00
18988;BME280;5494;51.796;10.952;2023-10-31T06:33:41;96991.66;;;11.03;100.00
18988;BME280;5494;51.796;10.952;2023-10-31T06:36:09;97004.97;;;11.10;100.00
18988;BME280;5494;51.796;10.952;2023-10-31T06:38:37;97004.22;;;11.29;100.00
18988;BME280;5494;51.796;10.952;2023-10-31T06:41:06;97013.91;;;11.17;100.00
18988;BME280;5494;51.796;10.952;2023-10-31T06:43:34;97025.66;;;11.12;100.00
18988;BME280;5494;51.796;10.952;2023-10-31T06:46:03;97024.03;;;11.20;100.00
18988;BME280;5494;51.796;10.952;2023-10-31T06:48:32;97027.47;;;11.21;100.00
18988;BME280;5494;51.796;10.952;2023-10-31T06:51:02;97041.88;;;11.25;100.00
18988;BME280;5494;51.796;10.952;2023-10-31T06:53:30;97048.22;;;11.41;100.00
18988;BME280;5494;51.796;10.952;2023-10-31T06:55:58;97049.94;;;11.52;100.00
18988;BME280;5494;51.796;10.952;2023-10-31T06:58:29;97051.28;;;11.47;100.00
18988;BME280;5494;51.796;10.952;2023-10-31T07:00:58;97059.09;;;11.56;100.00
18988;BME280;5494;51.796;10.952;2023-10-31T07:03:27;97052.44;;;11.63;100.00
18988;BME280;5494;51.796;10.952;2023-10-31T07:05:55;97075.38;;;11.49;100.00
18988;BME280;5494;51.796;10.952;2023-10-31T07:08:25;97078.97;;;11.57;100.00
18988;BME280;5494;51.796;10.952;2023-10-31T07:10:53;97075.19;;;11.61;100.00
18988;BME280;5494;51.796;10.952;2023-10-31T07:13:21;97088.59;;;11.66;100.00
18988;BME280;5494;51.796;10.952;2023-10-31T07:15:49;97088.72;;;11.65;100.00
18988;BME280;5494;51.796;10.952;2023-10-31T07:18:18;97101.34;;;11.69;100.00
18988;BME280;5494;51.796;10.952;2023-10-31T07:20:46;97092.47;;;11.72;100.00
18988;BME280;5494;51.796;10.952;2023-10-31T07:23:14;97088.94;;;11.82;100.00
18988;BME280;5494;51.796;10.952;2023-10-31T07:25:44;97077.50;;;11.95;100.00
18988;BME280;5494;51.796;10.952;2023-10-31T07:28:12;97076.13;;;12.00;100.00
18988;BME280;5494;51.796;10.952;2023-10-31T07:30:41;97078.34;;;11.95;100.00
18988;BME280;5494;51.796;10.952;2023-10-31T07:33:09;97080.28;;;12.03;100.00
18988;BME280;5494;51.796;10.952;2023-10-31T07:35:37;97089.56;;;12.05;100.00
18988;BME280;5494;51.796;10.952;2023-10-31T07:38:05;97103.44;;;12.06;100.00
18988;BME280;5494;51.796;10.952;2023-10-31T07:40:33;97095.34;;;12.09;100.00
18988;BME280;5494;51.796;10.952;2023-10-31T07:43:02;97095.34;;;12.09;100.00
18988;BME280;5494;51.796;10.952;2023-10-31T07:45:31;97094.53;;;12.18;100.00
18988;BME280;5494;51.796;10.952;2023-10-31T07:47:59;97091.41;;;12.34;100.00
18988;BME280;5494;51.796;10.952;2023-10-31T07:50:27;97095.69;;;12.44;100.00
18988;BME280;5494;51.796;10.952;2023-10-31T07:52:55;97096.75;;;12.32;100.00
18988;BME280;5494;51.796;10.952;2023-10-31T07:55:23;97106.50;;;12.30;100.00
18988;BME280;5494;51.796;10.952;2023-10-31T07:57:51;97107.91;;;12.63;100.00
18988;BME280;5494;51.796;10.952;2023-10-31T08:00:22;97106.56;;;12.78;100.00
18988;BME280;5494;51.796;10.952;2023-10-31T08:02:50;97114.19;;;13.09;100.00
18988;BME280;5494;51.796;10.952;2023-10-31T08:05:21;97111.06;;;13.34;100.00
18988;BME280;5494;51.796;10.952;2023-10-31T08:07:49;97118.69;;;13.55;100.00
18988;BME280;5494;51.796;10.952;2023-10-31T08:10:18;97111.81;;;13.54;100.00
18988;BME280;5494;51.796;10.952;2023-10-31T08:12:46;97121.91;;;13.76;100.00
18988;BME280;5494;51.796;10.952;2023-10-31T08:15:14;97131.75;;;14.19;100.00
18988;BME280;5494;51.796;10.952;2023-10-31T08:17:44;97132.94;;;14.79;100.00
18988;BME280;5494;51.796;10.952;2023-10-31T08:20:13;97143.34;;;15.15;98.92
18988;BME280;5494;51.796;10.952;2023-10-31T08:22:41;97137.53;;;15.64;95.40
18988;BME280;5494;51.796;10.952;2023-10-31T08:25:10;97150.66;;;15.72;92.18
18988;BME280;5494;51.796;10.952;2023-10-31T08:27:39;97146.84;;;15.41;91.89
18988;BME280;5494;51.796;10.952;2023-10-31T08:30:09;97138.81;;;15.60;91.83
18988;BME280;5494;51.796;10.952;2023-10-31T08:32:37;97145.78;;;15.77;92.16
18988;BME280;5494;51.796;10.952;2023-10-31T08:35:07;97140.72;;;15.76;90.86
18988;BME280;5494;51.796;10.952;2023-10-31T08:37:36;97145.25;;;15.48;96.79
18988;BME280;5494;51.796;10.952;2023-10-31T08:40:06;97159.97;;;15.49;97.53
18988;BME280;5494;51.796;10.952;2023-10-31T08:42:34;97166.66;;;15.87;96.83
18988;BME280;5494;51.796;10.952;2023-10-31T08:45:03;97162.31;;;16.04;95.66
18988;BME280;5494;51.796;10.952;2023-10-31T08:47:31;97178.09;;;15.86;93.01
18988;BME280;5494;51.796;10.952;2023-10-31T08:49:59;97179.06;;;16.11;94.08
18988;BME280;5494;51.796;10.952;2023-10-31T08:52:29;97183.13;;;15.80;92.06
18988;BME280;5494;51.796;10.952;2023-10-31T08:54:57;97189.56;;;15.59;94.66
18988;BME280;5494;51.796;10.952;2023-10-31T08:57:25;97199.88;;;15.08;98.53
18988;BME280;5494;51.796;10.952;2023-10-31T08:59:53;97199.88;;;14.90;100.00
18988;BME280;5494;51.796;10.952;2023-10-31T09:02:21;97200.03;;;14.88;100.00
18988;BME280;5494;51.796;10.952;2023-10-31T09:04:49;97203.25;;;14.82;100.00
18988;BME280;5494;51.796;10.952;2023-10-31T09:07:17;97210.47;;;14.71;100.00
18988;BME280;5494;51.796;10.952;2023-10-31T09:09:47;97206.03;;;14.53;100.00
18988;BME280;5494;51.796;10.952;2023-10-31T09:12:15;97204.13;;;14.46;100.00
18988;BME280;5494;51.796;10.952;2023-10-31T09:14:43;97217.81;;;14.30;100.00
18988;BME280;5494;51.796;10.952;2023-10-31T09:17:12;97213.84;;;13.89;100.00
18988;BME280;5494;51.796;10.952;2023-10-31T09:19:40;97212.88;;;13.80;100.00
18988;BME280;5494;51.796;10.952;2023-10-31T09:22:08;97207.22;;;13.85;100.00
18988;BME280;5494;51.796;10.952;2023-10-31T09:24:36;97224.16;;;13.71;100.00
18988;BME280;5494;51.796;10.952;2023-10-31T09:27:07;97215.94;;;13.57;100.00
18988;BME280;5494;51.796;10.952;2023-10-31T09:29:35;97214.28;;;13.56;100.00
18988;BME280;5494;51.796;10.952;2023-10-31T09:32:04;97230.53;;;13.69;100.00
18988;BME280;5494;51.796;10.952;2023-10-31T09:34:33;97231.63;;;14.13;100.00
18988;BME280;5494;51.796;10.952;2023-10-31T09:37:01;97240.53;;;14.20;100.00
18988;BME280;5494;51.796;10.952;2023-10-31T09:39:29;97224.09;;;14.10;100.00
18988;BME280;5494;51.796;10.952;2023-10-31T09:41:57;97242.38;;;14.10;100.00
18988;BME280;5494;51.796;10.952;2023-10-31T09:44:27;97232.06;;;14.08;100.00
18988;BME280;5494;51.796;10.952;2023-10-31T09:46:56;97231.56;;;13.86;100.00
18988;BME280;5494;51.796;10.952;2023-10-31T09:49:25;97238.06;;;13.82;100.00
18988;BME280;5494;51.796;10.952;2023-10-31T09:51:54;97255.22;;;13.84;100.00
18988;BME280;5494;51.796;10.952;2023-10-31T09:54:23;97264.81;;;14.03;100.00
18988;BME280;5494;51.796;10.952;2023-10-31T09:56:54;97265.69;;;13.74;100.00
18988;BME280;5494;51.796;10.952;2023-10-31T09:59:22;97269.94;;;13.56;100.00
18988;BME280;5494;51.796;10.952;2023-10-31T10:01:51;97274.06;;;13.49;100.00
18988;BME280;5494;51.796;10.952;2023-10-31T10:04:20;97268.03;;;13.39;100.00
18988;BME280;5494;51.796;10.952;2023-10-31T10:06:58;97250.59;;;13.30;100.00
18988;BME280;5494;51.796;10.952;2023-10-31T10:09:27;97260.19;;;13.29;100.00
18988;BME280;5494;51.796;10.952;2023-10-31T10:11:56;97270.38;;;13.32;100.00
18988;BME280;5494;51.796;10.952;2023-10-31T10:14:25;97272.84;;;13.53;100.00
18988;BME280;5494;51.796;10.952;2023-10-31T10:16:54;97286.44;;;13.57;100.00
18988;BME280;5494;51.796;10.952;2023-10-31T10:19:23;97283.25;;;13.92;100.00
18988;BME280;5494;51.796;10.952;2023-10-31T10:21:54;97290.66;;;14.06;100.00
18988;BME280;5494;51.796;10.952;2023-10-31T10:24:24;97296.44;;;14.09;100.00
18988;BME280;5494;51.796;10.952;2023-10-31T10:26:52;97298.63;;;14.04;100.00
18988;BME280;5494;51.796;10.952;2023-10-31T10:29:21;97304.53;;;14.16;100.00
18988;BME280;5494;51.796;10.952;2023-10-31T10:31:49;97301.53;;;14.57;100.00
18988;BME280;5494;51.796;10.952;2023-10-31T10:34:18;97303.94;;;14.78;98.34
18988;BME280;5494;51.796;10.952;2023-10-31T10:36:48;97304.16;;;15.12;96.18
18988;BME280;5494;51.796;10.952;2023-10-31T10:39:20;97307.50;;;15.22;92.10
18988;BME280;5494;51.796;10.952;2023-10-31T10:41:53;97303.47;;;15.55;90.97
18988;BME280;5494;51.796;10.952;2023-10-31T10:44:32;97299.56;;;15.59;86.98
18988;BME280;5494;51.796;10.952;2023-10-31T10:47:04;97311.69;;;15.60;88.31
18988;BME280;5494;51.796;10.952;2023-10-31T10:49:36;97314.34;;;15.33;85.82
18988;BME280;5494;51.796;10.952;2023-10-31T10:52:17;97313.97;;;15.01;88.81
18988;BME280;5494;51.796;10.952;2023-10-31T10:54:53;97319.13;;;15.20;86.33
18988;BME280;5494;51.796;10.952;2023-10-31T10:57:32;97312.22;;;15.19;85.21
18988;BME280;5494;51.796;10.952;2023-10-31T11:00:05;97314.28;;;14.97;86.76
18988;BME280;5494;51.796;10.952;2023-10-31T11:02:38;97308.88;;;15.26;88.45
18988;BME280;5494;51.796;10.952;2023-10-31T11:05:09;97316.69;;;15.71;82.02
18988;BME280;5494;51.796;10.952;2023-10-31T11:07:38;97307.00;;;16.07;78.45
18988;BME280;5494;51.796;10.952;2023-10-31T11:10:08;97313.59;;;16.37;78.13
18988;BME280;5494;51.796;10.952;2023-10-31T11:12:37;97307.63;;;15.84;77.30
18988;BME280;5494;51.796;10.952;2023-10-31T11:15:09;97314.25;;;15.25;77.55
18988;BME280;5494;51.796;10.952;2023-10-31T11:17:44;97313.91;;;14.92;80.86
18988;BME280;5494;51.796;10.952;2023-10-31T11:20:16;97313.47;;;14.97;82.03
18988;BME280;5494;51.796;10.952;2023-10-31T11:22:46;97312.50;;;14.71;82.47
18988;BME280;5494;51.796;10.952;2023-10-31T11:25:19;97317.28;;;14.75;85.34
18988;BME280;5494;51.796;10.952;2023-10-31T11:28:12;97308.19;;;14.33;86.03
18988;BME280;5494;51.796;10.952;2023-10-31T11:30:41;97300.84;;;13.99;88.61
18988;BME280;5494;51.796;10.952;2023-10-31T11:33:15;97331.66;;;13.86;92.88
18988;BME280;5494;51.796;10.952;2023-10-31T11:35:50;97317.50;;;13.79;93.57
18988;BME280;5494;51.796;10.952;2023-10-31T11:38:31;97318.88;;;13.64;95.90
18988;BME280;5494;51.796;10.952;2023-10-31T11:41:02;97320.22;;;13.49;99.13
18988;BME280;5494;51.796;10.952;2023-10-31T11:43:55;97323.13;;;13.26;100.00
18988;BME280;5494;51.796;10.952;2023-10-31T11:46:24;97333.97;;;13.31;100.00
18988;BME280;5494;51.796;10.952;2023-10-31T11:48:54;97340.16;;;13.30;100.00
18988;BME280;5494;51.796;10.952;2023-10-31T11:51:26;97333.56;;;13.36;100.00
18988;BME280;5494;51.796;10.952;2023-10-31T11:53:55;97329.38;;;13.14;100.00
18988;BME280;5494;51.796;10.952;2023-10-31T11:56:24;97350.19;;;12.95;100.00
18988;BME280;5494;51.796;10.952;2023-10-31T11:58:57;97366.13;;;13.01;100.00
18988;BME280;5494;51.796;10.952;2023-10-31T12:01:25;97362.16;;;13.07;100.00
18988;BME280;5494;51.796;10.952;2023-10-31T12:03:53;97369.09;;;13.18;100.00
18988;BME280;5494;51.796;10.952;2023-10-31T12:06:22;97372.28;;;13.31;100.00
18988;BME280;5494;51.796;10.952;2023-10-31T12:08:51;97376.44;;;13.53;97.79
18988;BME280;5494;51.796;10.952;2023-10-31T12:11:22;97397.75;;;13.58;98.84
18988;BME280;5494;51.796;10.952;2023-10-31T12:13:57;97393.38;;;13.68;97.70
18988;BME280;5494;51.796;10.952;2023-10-31T12:16:28;97403.66;;;13.69;95.29
18988;BME280;5494;51.796;10.952;2023-10-31T12:18:58;97403.69;;;13.98;94.43
18988;BME280;5494;51.796;10.952;2023-10-31T12:21:37;97422.13;;;13.87;94.06
18988;BME280;5494;51.796;10.952;2023-10-31T12:24:09;97421.00;;;13.80;95.42
18988;BME280;5494;51.796;10.952;2023-10-31T12:26:39;97414.16;;;13.89;95.73
18988;BME280;5494;51.796;10.952;2023-10-31T12:29:09;97420.31;;;13.68;94.74
18988;BME280;5494;51.796;10.952;2023-10-31T12:31:46;97422.03;;;13.39;97.37
18988;BME280;5494;51.796;10.952;2023-10-31T12:34:16;97417.22;;;13.44;99.29
18988;BME280;5494;51.796;10.952;2023-10-31T12:36:47;97404.16;;;13.25;100.00
18988;BME280;5494;51.796;10.952;2023-10-31T12:39:20;97413.19;;;13.21;100.00
18988;BME280;5494;51.796;10.952;2023-10-31T12:41:50;97422.00;;;13.29;100.00
18988;BME280;5494;51.796;10.952;2023-10-31T12:44:27;97426.44;;;13.38;100.00
18988;BME280;5494;51.796;10.952;2023-10-31T12:46:56;97435.78;;;13.41;100.00
18988;BME280;5494;51.796;10.952;2023-10-31T12:49:25;97432.34;;;13.40;99.95
18988;BME280;5494;51.796;10.952;2023-10-31T12:51:56;97433.56;;;13.36;99.35
18988;BME280;5494;51.796;10.952;2023-10-31T12:54:31;97437.00;;;13.37;99.27
18988;BME280;5494;51.796;10.952;2023-10-31T12:57:01;97439.06;;;13.43;100.00
18988;BME280;5494;51.796;10.952;2023-10-31T12:59:29;97435.53;;;13.63;97.95
18988;BME280;5494;51.796;10.952;2023-10-31T13:01:58;97442.13;;;13.48;97.00
18988;BME280;5494;51.796;10.952;2023-10-31T13:04:27;97450.50;;;13.52;96.97